sensor_id;sensor_type;location;lat;lon;timestamp;P1;durP1;ratioP1;P2;durP2;ratioP2
83372;SDS011;73281;50.882;5.984;2024-01-06T00:00:28;7.73;;;5.30;;
83372;SDS011;73281;50.882;5.984;2024-01-06T00:02:53;8.70;;;5.63;;
83372;SDS011;73281;50.882;5.984;2024-01-06T00:05:19;9.53;;;5.77;;
83372;SDS011;73281;50.882;5.984;2024-01-06T00:07:44;10.20;;;6.20;;
83372;SDS011;73281;50.882;5.984;2024-01-06T00:10:09;10.50;;;6.53;;
83372;SDS011;73281;50.882;5.984;2024-01-06T00:12:35;11.60;;;6.87;;
83372;SDS011;73281;50.882;5.984;2024-01-06T00:15:00;14.43;;;7.10;;
83372;SDS011;73281;50.882;5.984;2024-01-06T00:17:26;12.50;;;6.85;;
83372;SDS011;73281;50.882;5.984;2024-01-06T00:19:51;12.13;;;6.77;;
83372;SDS011;73281;50.882;5.984;2024-01-06T00:22:17;9.77;;;6.10;;
83372;SDS011;73281;50.882;5.984;2024-01-06T00:24:43;12.20;;;5.90;;
83372;SDS011;73281;50.882;5.984;2024-01-06T00:27:08;13.17;;;6.97;;
83372;SDS011;73281;50.882;5.984;2024-01-06T00:29:34;11.30;;;6.47;;
83372;SDS011;73281;50.882;5.984;2024-01-06T00:31:59;14.50;;;6.73;;
83372;SDS011;73281;50.882;5.984;2024-01-06T00:34:24;14.87;;;7.00;;
83372;SDS011;73281;50.882;5.984;2024-01-06T00:36:50;14.20;;;6.77;;
83372;SDS011;73281;50.882;5.984;2024-01-06T00:39:15;13.13;;;6.97;;
83372;SDS011;73281;50.882;5.984;2024-01-06T00:41:41;12.90;;;7.07;;
83372;SDS011;73281;50.882;5.984;2024-01-06T00:44:06;11.23;;;6.93;;
83372;SDS011;73281;50.882;5.984;2024-01-06T00:46:31;13.55;;;7.22;;
83372;SDS011;73281;50.882;5.984;2024-01-06T00:48:57;13.63;;;7.00;;
83372;SDS011;73281;50.882;5.984;2024-01-06T00:51:22;13.37;;;6.60;;
83372;SDS011;73281;50.882;5.984;2024-01-06T00:53:47;12.37;;;6.57;;
83372;SDS011;73281;50.882;5.984;2024-01-06T00:56:13;11.10;;;6.80;;
83372;SDS011;73281;50.882;5.984;2024-01-06T00:58:38;15.20;;;7.53;;
83372;SDS011;73281;50.882;5.984;2024-01-06T01:01:04;16.25;;;8.25;;
83372;SDS011;73281;50.882;5.984;2024-01-06T01:03:29;15.57;;;7.77;;
83372;SDS011;73281;50.882;5.984;2024-01-06T01:05:54;15.10;;;7.30;;
83372;SDS011;73281;50.882;5.984;2024-01-06T01:08:20;13.47;;;7.27;;
83372;SDS011;73281;50.882;5.984;2024-01-06T01:10:45;12.80;;;7.57;;
83372;SDS011;73281;50.882;5.984;2024-01-06T01:13:11;14.02;;;7.15;;
83372;SDS011;73281;50.882;5.984;2024-01-06T01:15:36;13.93;;;6.97;;
83372;SDS011;73281;50.882;5.984;2024-01-06T01:18:01;14.73;;;7.70;;
83372;SDS011;73281;50.882;5.984;2024-01-06T01:20:27;17.27;;;7.60;;
83372;SDS011;73281;50.882;5.984;2024-01-06T01:22:52;17.25;;;8.45;;
83372;SDS011;73281;50.882;5.984;2024-01-06T01:25:18;16.13;;;8.20;;
83372;SDS011;73281;50.882;5.984;2024-01-06T01:27:43;17.07;;;9.03;;
83372;SDS011;73281;50.882;5.984;2024-01-06T01:30:08;16.07;;;8.57;;
83372;SDS011;73281;50.882;5.984;2024-01-06T01:32:34;13.82;;;7.85;;
83372;SDS011;73281;50.882;5.984;2024-01-06T01:35:00;17.93;;;7.70;;
83372;SDS011;73281;50.882;5.984;2024-01-06T01:37:25;16.40;;;7.97;;
83372;SDS011;73281;50.882;5.984;2024-01-06T01:39:50;17.73;;;7.43;;
83372;SDS011;73281;50.882;5.984;2024-01-06T01:42:16;19.07;;;8.00;;
83372;SDS011;73281;50.882;5.984;2024-01-06T01:44:41;12.20;;;6.45;;
83372;SDS011;73281;50.882;5.984;2024-01-06T01:47:06;14.03;;;7.37;;
83372;SDS011;73281;50.882;5.984;2024-01-06T01:49:32;14.53;;;6.00;;
83372;SDS011;73281;50.882;5.984;2024-01-06T01:51:58;11.88;;;5.40;;
83372;SDS011;73281;50.882;5.984;2024-01-06T01:54:24;11.60;;;5.63;;
83372;SDS011;73281;50.882;5.984;2024-01-06T01:56:50;12.13;;;5.50;;
83372;SDS011;73281;50.882;5.984;2024-01-06T01:59:17;10.25;;;5.20;;
83372;SDS011;73281;50.882;5.984;2024-01-06T02:01:44;9.35;;;4.72;;
83372;SDS011;73281;50.882;5.984;2024-01-06T02:04:09;10.43;;;5.17;;
83372;SDS011;73281;50.882;5.984;2024-01-06T02:06:35;10.87;;;5.40;;
83372;SDS011;73281;50.882;5.984;2024-01-06T02:09:00;9.90;;;5.10;;
83372;SDS011;73281;50.882;5.984;2024-01-06T02:11:26;9.70;;;4.97;;
83372;SDS011;73281;50.882;5.984;2024-01-06T02:13:51;9.63;;;5.23;;
83372;SDS011;73281;50.882;5.984;2024-01-06T02:16:16;11.30;;;5.65;;
83372;SDS011;73281;50.882;5.984;2024-01-06T02:18:42;10.00;;;5.50;;
83372;SDS011;73281;50.882;5.984;2024-01-06T02:21:07;11.73;;;5.27;;
83372;SDS011;73281;50.882;5.984;2024-01-06T02:23:34;11.00;;;5.70;;
83372;SDS011;73281;50.882;5.984;2024-01-06T02:26:01;13.98;;;5.05;;
83372;SDS011;73281;50.882;5.984;2024-01-06T02:28:27;9.57;;;5.15;;
83372;SDS011;73281;50.882;5.984;2024-01-06T02:30:53;11.93;;;5.80;;
83372;SDS011;73281;50.882;5.984;2024-01-06T02:33:18;12.87;;;5.23;;
83372;SDS011;73281;50.882;5.984;2024-01-06T02:35:46;11.45;;;5.72;;
83372;SDS011;73281;50.882;5.984;2024-01-06T02:38:12;10.75;;;5.38;;
83372;SDS011;73281;50.882;5.984;2024-01-06T02:40:40;13.43;;;5.50;;
83372;SDS011;73281;50.882;5.984;2024-01-06T02:43:07;11.05;;;5.47;;
83372;SDS011;73281;50.882;5.984;2024-01-06T02:45:33;11.67;;;4.80;;
83372;SDS011;73281;50.882;5.984;2024-01-06T02:47:58;13.50;;;5.20;;
83372;SDS011;73281;50.882;5.984;2024-01-06T02:50:23;10.97;;;4.97;;
83372;SDS011;73281;50.882;5.984;2024-01-06T02:52:49;9.37;;;4.93;;
83372;SDS011;73281;50.882;5.984;2024-01-06T02:55:14;10.47;;;4.50;;
83372;SDS011;73281;50.882;5.984;2024-01-06T02:57:40;12.23;;;5.00;;
83372;SDS011;73281;50.882;5.984;2024-01-06T03:00:06;11.60;;;5.30;;
83372;SDS011;73281;50.882;5.984;2024-01-06T03:02:33;9.23;;;5.25;;
83372;SDS011;73281;50.882;5.984;2024-01-06T03:04:58;12.47;;;4.77;;
83372;SDS011;73281;50.882;5.984;2024-01-06T03:07:23;10.90;;;4.78;;
83372;SDS011;73281;50.882;5.984;2024-01-06T03:09:49;7.33;;;4.33;;
83372;SDS011;73281;50.882;5.984;2024-01-06T03:12:14;8.80;;;3.63;;
83372;SDS011;73281;50.882;5.984;2024-01-06T03:14:40;8.70;;;3.63;;
83372;SDS011;73281;50.882;5.984;2024-01-06T03:17:05;7.23;;;3.70;;
83372;SDS011;73281;50.882;5.984;2024-01-06T03:19:30;7.13;;;3.72;;
83372;SDS011;73281;50.882;5.984;2024-01-06T03:21:56;12.43;;;4.47;;
83372;SDS011;73281;50.882;5.984;2024-01-06T03:24:22;7.63;;;4.23;;
83372;SDS011;73281;50.882;5.984;2024-01-06T03:26:49;8.90;;;4.45;;
83372;SDS011;73281;50.882;5.984;2024-01-06T03:29:14;9.63;;;4.07;;
83372;SDS011;73281;50.882;5.984;2024-01-06T03:31:43;13.05;;;4.15;;
83372;SDS011;73281;50.882;5.984;2024-01-06T03:34:09;7.43;;;4.10;;
83372;SDS011;73281;50.882;5.984;2024-01-06T03:36:38;8.30;;;3.83;;
83372;SDS011;73281;50.882;5.984;2024-01-06T03:39:04;5.95;;;3.40;;
83372;SDS011;73281;50.882;5.984;2024-01-06T03:41:29;6.88;;;3.50;;
83372;SDS011;73281;50.882;5.984;2024-01-06T03:43:55;6.73;;;3.90;;
83372;SDS011;73281;50.882;5.984;2024-01-06T03:46:21;7.03;;;4.10;;
83372;SDS011;73281;50.882;5.984;2024-01-06T03:48:46;8.43;;;4.47;;
83372;SDS011;73281;50.882;5.984;2024-01-06T03:51:12;8.70;;;4.70;;
83372;SDS011;73281;50.882;5.984;2024-01-06T03:53:37;7.10;;;4.40;;
83372;SDS011;73281;50.882;5.984;2024-01-06T03:56:03;8.18;;;4.50;;
83372;SDS011;73281;50.882;5.984;2024-01-06T03:58:29;9.37;;;4.40;;
83372;SDS011;73281;50.882;5.984;2024-01-06T04:00:54;7.22;;;4.10;;
83372;SDS011;73281;50.882;5.984;2024-01-06T04:03:20;11.37;;;4.77;;
83372;SDS011;73281;50.882;5.984;2024-01-06T04:05:45;10.50;;;4.57;;
83372;SDS011;73281;50.882;5.984;2024-01-06T04:08:10;8.13;;;4.10;;
83372;SDS011;73281;50.882;5.984;2024-01-06T04:10:42;9.63;;;4.55;;
83372;SDS011;73281;50.882;5.984;2024-01-06T04:13:08;6.93;;;3.85;;
83372;SDS011;73281;50.882;5.984;2024-01-06T04:15:34;9.73;;;4.43;;
83372;SDS011;73281;50.882;5.984;2024-01-06T04:18:23;9.35;;;4.80;;
83372;SDS011;73281;50.882;5.984;2024-01-06T04:20:52;10.82;;;5.47;;
83372;SDS011;73281;50.882;5.984;2024-01-06T04:23:31;14.23;;;4.95;;
83372;SDS011;73281;50.882;5.984;2024-01-06T04:26:17;11.65;;;5.03;;
83372;SDS011;73281;50.882;5.984;2024-01-06T04:29:14;12.00;;;4.97;;
83372;SDS011;73281;50.882;5.984;2024-01-06T04:31:45;9.02;;;4.28;;
83372;SDS011;73281;50.882;5.984;2024-01-06T04:34:11;10.70;;;4.10;;
83372;SDS011;73281;50.882;5.984;2024-01-06T04:36:36;10.97;;;4.90;;
83372;SDS011;73281;50.882;5.984;2024-01-06T04:39:02;9.60;;;4.33;;
83372;SDS011;73281;50.882;5.984;2024-01-06T04:41:27;11.93;;;4.37;;
83372;SDS011;73281;50.882;5.984;2024-01-06T04:43:52;10.07;;;4.37;;
83372;SDS011;73281;50.882;5.984;2024-01-06T04:46:18;8.70;;;3.77;;
83372;SDS011;73281;50.882;5.984;2024-01-06T04:48:43;9.43;;;4.47;;
83372;SDS011;73281;50.882;5.984;2024-01-06T04:51:09;7.77;;;3.63;;
83372;SDS011;73281;50.882;5.984;2024-01-06T04:53:38;8.68;;;3.53;;
83372;SDS011;73281;50.882;5.984;2024-01-06T04:56:03;8.07;;;3.80;;
83372;SDS011;73281;50.882;5.984;2024-01-06T04:58:29;8.27;;;3.67;;
83372;SDS011;73281;50.882;5.984;2024-01-06T05:00:54;9.03;;;4.07;;
83372;SDS011;73281;50.882;5.984;2024-01-06T05:03:20;9.93;;;5.00;;
83372;SDS011;73281;50.882;5.984;2024-01-06T05:05:45;9.90;;;4.80;;
83372;SDS011;73281;50.882;5.984;2024-01-06T05:08:11;11.10;;;4.67;;
83372;SDS011;73281;50.882;5.984;2024-01-06T05:10:36;11.57;;;5.37;;
83372;SDS011;73281;50.882;5.984;2024-01-06T05:13:01;13.60;;;6.10;;
83372;SDS011;73281;50.882;5.984;2024-01-06T05:15:27;12.23;;;5.73;;
83372;SDS011;73281;50.882;5.984;2024-01-06T05:17:52;13.27;;;5.75;;
83372;SDS011;73281;50.882;5.984;2024-01-06T05:20:18;14.60;;;5.53;;
83372;SDS011;73281;50.882;5.984;2024-01-06T05:22:43;12.43;;;5.37;;
83372;SDS011;73281;50.882;5.984;2024-01-06T05:25:08;11.87;;;5.70;;
83372;SDS011;73281;50.882;5.984;2024-01-06T05:27:34;12.82;;;5.82;;
83372;SDS011;73281;50.882;5.984;2024-01-06T05:30:00;14.90;;;5.53;;
83372;SDS011;73281;50.882;5.984;2024-01-06T05:32:25;10.65;;;4.95;;
83372;SDS011;73281;50.882;5.984;2024-01-06T05:34:51;11.93;;;4.73;;
83372;SDS011;73281;50.882;5.984;2024-01-06T05:37:16;11.57;;;5.20;;
83372;SDS011;73281;50.882;5.984;2024-01-06T05:39:42;11.07;;;5.33;;
83372;SDS011;73281;50.882;5.984;2024-01-06T05:42:09;11.83;;;4.97;;
83372;SDS011;73281;50.882;5.984;2024-01-06T05:44:39;11.52;;;5.07;;
83372;SDS011;73281;50.882;5.984;2024-01-06T05:47:05;11.23;;;5.50;;
83372;SDS011;73281;50.882;5.984;2024-01-06T05:49:30;12.37;;;5.30;;
83372;SDS011;73281;50.882;5.984;2024-01-06T05:51:56;11.40;;;5.53;;
83372;SDS011;73281;50.882;5.984;2024-01-06T05:54:21;13.40;;;5.60;;
83372;SDS011;73281;50.882;5.984;2024-01-06T05:56:46;13.25;;;6.53;;
83372;SDS011;73281;50.882;5.984;2024-01-06T05:59:12;12.97;;;5.27;;
83372;SDS011;73281;50.882;5.984;2024-01-06T06:01:37;12.23;;;5.70;;
83372;SDS011;73281;50.882;5.984;2024-01-06T06:04:03;12.10;;;5.30;;
83372;SDS011;73281;50.882;5.984;2024-01-06T06:06:28;12.63;;;5.80;;
83372;SDS011;73281;50.882;5.984;2024-01-06T06:08:53;12.57;;;5.70;;
83372;SDS011;73281;50.882;5.984;2024-01-06T06:11:19;12.77;;;5.80;;
83372;SDS011;73281;50.882;5.984;2024-01-06T06:13:44;14.83;;;6.03;;
83372;SDS011;73281;50.882;5.984;2024-01-06T06:16:10;12.40;;;5.60;;
83372;SDS011;73281;50.882;5.984;2024-01-06T06:18:37;13.07;;;5.82;;
83372;SDS011;73281;50.882;5.984;2024-01-06T06:21:03;13.95;;;6.15;;
83372;SDS011;73281;50.882;5.984;2024-01-06T06:23:29;16.43;;;6.43;;
83372;SDS011;73281;50.882;5.984;2024-01-06T06:25:55;14.70;;;6.22;;
83372;SDS011;73281;50.882;5.984;2024-01-06T06:28:21;13.60;;;6.13;;
83372;SDS011;73281;50.882;5.984;2024-01-06T06:30:46;14.98;;;7.20;;
83372;SDS011;73281;50.882;5.984;2024-01-06T06:33:12;13.70;;;6.43;;
83372;SDS011;73281;50.882;5.984;2024-01-06T06:35:37;14.80;;;6.57;;
83372;SDS011;73281;50.882;5.984;2024-01-06T06:38:03;15.13;;;6.75;;
83372;SDS011;73281;50.882;5.984;2024-01-06T06:40:28;14.47;;;6.70;;
83372;SDS011;73281;50.882;5.984;2024-01-06T06:42:54;15.60;;;7.43;;
83372;SDS011;73281;50.882;5.984;2024-01-06T06:45:19;15.57;;;6.93;;
83372;SDS011;73281;50.882;5.984;2024-01-06T06:47:47;16.08;;;7.50;;
83372;SDS011;73281;50.882;5.984;2024-01-06T06:50:14;14.75;;;6.82;;
83372;SDS011;73281;50.882;5.984;2024-01-06T06:52:39;14.97;;;6.67;;
83372;SDS011;73281;50.882;5.984;2024-01-06T06:55:05;14.20;;;6.88;;
83372;SDS011;73281;50.882;5.984;2024-01-06T06:57:30;17.37;;;7.83;;
83372;SDS011;73281;50.882;5.984;2024-01-06T06:59:58;13.57;;;6.38;;
83372;SDS011;73281;50.882;5.984;2024-01-06T07:02:25;16.23;;;7.45;;
83372;SDS011;73281;50.882;5.984;2024-01-06T07:04:50;16.73;;;7.03;;
83372;SDS011;73281;50.882;5.984;2024-01-06T07:07:16;15.27;;;7.17;;
83372;SDS011;73281;50.882;5.984;2024-01-06T07:09:41;14.43;;;6.72;;
83372;SDS011;73281;50.882;5.984;2024-01-06T07:12:07;15.10;;;6.63;;
83372;SDS011;73281;50.882;5.984;2024-01-06T07:14:33;14.27;;;5.83;;
83372;SDS011;73281;50.882;5.984;2024-01-06T07:16:58;17.05;;;6.60;;
83372;SDS011;73281;50.882;5.984;2024-01-06T07:19:24;17.13;;;6.60;;
83372;SDS011;73281;50.882;5.984;2024-01-06T07:21:49;15.00;;;6.30;;
83372;SDS011;73281;50.882;5.984;2024-01-06T07:24:15;14.67;;;6.50;;
83372;SDS011;73281;50.882;5.984;2024-01-06T07:26:40;14.73;;;6.30;;
83372;SDS011;73281;50.882;5.984;2024-01-06T07:29:06;16.07;;;6.43;;
83372;SDS011;73281;50.882;5.984;2024-01-06T07:31:33;17.25;;;7.20;;
83372;SDS011;73281;50.882;5.984;2024-01-06T07:33:58;15.47;;;5.70;;
83372;SDS011;73281;50.882;5.984;2024-01-06T07:36:24;15.97;;;6.50;;
83372;SDS011;73281;50.882;5.984;2024-01-06T07:38:49;17.53;;;5.83;;
83372;SDS011;73281;50.882;5.984;2024-01-06T07:41:14;14.67;;;6.10;;
83372;SDS011;73281;50.882;5.984;2024-01-06T07:43:40;15.97;;;6.00;;
83372;SDS011;73281;50.882;5.984;2024-01-06T07:46:05;14.07;;;5.70;;
83372;SDS011;73281;50.882;5.984;2024-01-06T07:48:32;14.67;;;6.50;;
83372;SDS011;73281;50.882;5.984;2024-01-06T07:50:57;15.75;;;5.82;;
83372;SDS011;73281;50.882;5.984;2024-01-06T07:53:22;12.40;;;5.47;;
83372;SDS011;73281;50.882;5.984;2024-01-06T07:55:48;14.15;;;6.18;;
83372;SDS011;73281;50.882;5.984;2024-01-06T07:58:14;12.50;;;5.97;;
83372;SDS011;73281;50.882;5.984;2024-01-06T08:00:39;15.30;;;6.07;;
83372;SDS011;73281;50.882;5.984;2024-01-06T08:03:05;13.53;;;5.37;;
83372;SDS011;73281;50.882;5.984;2024-01-06T08:05:31;14.88;;;6.45;;
83372;SDS011;73281;50.882;5.984;2024-01-06T08:07:56;13.02;;;6.22;;
83372;SDS011;73281;50.882;5.984;2024-01-06T08:10:22;13.33;;;5.87;;
83372;SDS011;73281;50.882;5.984;2024-01-06T08:12:48;14.88;;;5.47;;
83372;SDS011;73281;50.882;5.984;2024-01-06T08:15:13;14.33;;;6.37;;
83372;SDS011;73281;50.882;5.984;2024-01-06T08:17:39;12.40;;;6.25;;
83372;SDS011;73281;50.882;5.984;2024-01-06T08:20:06;13.30;;;5.67;;
83372;SDS011;73281;50.882;5.984;2024-01-06T08:22:33;12.23;;;6.05;;
83372;SDS011;73281;50.882;5.984;2024-01-06T08:24:59;13.80;;;5.93;;
83372;SDS011;73281;50.882;5.984;2024-01-06T08:27:24;14.93;;;6.17;;
83372;SDS011;73281;50.882;5.984;2024-01-06T08:29:50;14.80;;;5.72;;
83372;SDS011;73281;50.882;5.984;2024-01-06T08:32:15;13.77;;;6.57;;
83372;SDS011;73281;50.882;5.984;2024-01-06T08:34:41;14.00;;;6.28;;
83372;SDS011;73281;50.882;5.984;2024-01-06T08:37:07;13.67;;;6.13;;
83372;SDS011;73281;50.882;5.984;2024-01-06T08:39:32;15.55;;;5.97;;
83372;SDS011;73281;50.882;5.984;2024-01-06T08:41:58;12.97;;;6.20;;
83372;SDS011;73281;50.882;5.984;2024-01-06T08:44:23;11.30;;;5.00;;
83372;SDS011;73281;50.882;5.984;2024-01-06T08:46:49;9.73;;;4.93;;
83372;SDS011;73281;50.882;5.984;2024-01-06T08:49:15;10.35;;;5.25;;
83372;SDS011;73281;50.882;5.984;2024-01-06T08:51:41;13.60;;;5.53;;
83372;SDS011;73281;50.882;5.984;2024-01-06T08:54:06;11.97;;;5.90;;
83372;SDS011;73281;50.882;5.984;2024-01-06T08:56:34;12.83;;;5.57;;
83372;SDS011;73281;50.882;5.984;2024-01-06T08:59:00;10.50;;;4.65;;
83372;SDS011;73281;50.882;5.984;2024-01-06T09:01:26;12.38;;;5.28;;
83372;SDS011;73281;50.882;5.984;2024-01-06T09:03:51;11.90;;;5.00;;
83372;SDS011;73281;50.882;5.984;2024-01-06T09:06:17;12.53;;;5.20;;
83372;SDS011;73281;50.882;5.984;2024-01-06T09:08:42;11.73;;;5.50;;
83372;SDS011;73281;50.882;5.984;2024-01-06T09:11:07;10.75;;;5.45;;
83372;SDS011;73281;50.882;5.984;2024-01-06T09:13:33;15.30;;;6.13;;
83372;SDS011;73281;50.882;5.984;2024-01-06T09:15:58;11.73;;;5.90;;
83372;SDS011;73281;50.882;5.984;2024-01-06T09:18:25;11.73;;;5.40;;
83372;SDS011;73281;50.882;5.984;2024-01-06T09:20:51;11.27;;;5.17;;
83372;SDS011;73281;50.882;5.984;2024-01-06T09:23:17;11.02;;;5.20;;
83372;SDS011;73281;50.882;5.984;2024-01-06T09:25:42;10.50;;;4.93;;
83372;SDS011;73281;50.882;5.984;2024-01-06T09:28:08;10.20;;;4.55;;
83372;SDS011;73281;50.882;5.984;2024-01-06T09:30:33;7.73;;;3.43;;
83372;SDS011;73281;50.882;5.984;2024-01-06T09:32:59;9.80;;;4.43;;
83372;SDS011;73281;50.882;5.984;2024-01-06T09:35:24;10.57;;;4.20;;
83372;SDS011;73281;50.882;5.984;2024-01-06T09:37:50;9.15;;;4.50;;
83372;SDS011;73281;50.882;5.984;2024-01-06T09:40:18;9.43;;;4.83;;
83372;SDS011;73281;50.882;5.984;2024-01-06T09:42:47;10.13;;;4.00;;
83372;SDS011;73281;50.882;5.984;2024-01-06T09:45:13;7.95;;;3.80;;
83372;SDS011;73281;50.882;5.984;2024-01-06T09:47:40;10.77;;;4.30;;
83372;SDS011;73281;50.882;5.984;2024-01-06T09:50:06;8.63;;;4.35;;
83372;SDS011;73281;50.882;5.984;2024-01-06T09:52:38;12.03;;;4.03;;
83372;SDS011;73281;50.882;5.984;2024-01-06T09:55:11;9.68;;;3.92;;
83372;SDS011;73281;50.882;5.984;2024-01-06T09:57:37;8.75;;;3.95;;
83372;SDS011;73281;50.882;5.984;2024-01-06T10:00:04;9.93;;;4.30;;
83372;SDS011;73281;50.882;5.984;2024-01-06T10:02:30;7.82;;;3.90;;
83372;SDS011;73281;50.882;5.984;2024-01-06T10:04:57;8.33;;;4.20;;
83372;SDS011;73281;50.882;5.984;2024-01-06T10:07:23;8.63;;;3.88;;
83372;SDS011;73281;50.882;5.984;2024-01-06T10:09:51;9.13;;;3.83;;
83372;SDS011;73281;50.882;5.984;2024-01-06T10:12:23;6.28;;;2.92;;
83372;SDS011;73281;50.882;5.984;2024-01-06T10:14:51;7.57;;;3.55;;
83372;SDS011;73281;50.882;5.984;2024-01-06T10:17:19;6.23;;;3.20;;
83372;SDS011;73281;50.882;5.984;2024-01-06T10:19:45;8.52;;;3.65;;
83372;SDS011;73281;50.882;5.984;2024-01-06T10:22:11;7.70;;;3.53;;
83372;SDS011;73281;50.882;5.984;2024-01-06T10:24:37;8.95;;;4.53;;
83372;SDS011;73281;50.882;5.984;2024-01-06T10:27:03;8.32;;;3.75;;
83372;SDS011;73281;50.882;5.984;2024-01-06T10:29:29;7.13;;;3.87;;
83372;SDS011;73281;50.882;5.984;2024-01-06T10:31:54;7.93;;;3.90;;
83372;SDS011;73281;50.882;5.984;2024-01-06T10:34:20;7.00;;;3.23;;
83372;SDS011;73281;50.882;5.984;2024-01-06T10:36:46;8.43;;;4.15;;
83372;SDS011;73281;50.882;5.984;2024-01-06T10:39:13;8.30;;;4.40;;
83372;SDS011;73281;50.882;5.984;2024-01-06T10:41:40;9.13;;;4.73;;
83372;SDS011;73281;50.882;5.984;2024-01-06T10:44:07;10.10;;;4.55;;
83372;SDS011;73281;50.882;5.984;2024-01-06T10:46:34;9.18;;;4.18;;
83372;SDS011;73281;50.882;5.984;2024-01-06T10:49:00;10.00;;;4.72;;
83372;SDS011;73281;50.882;5.984;2024-01-06T10:51:27;8.75;;;4.45;;
83372;SDS011;73281;50.882;5.984;2024-01-06T10:53:55;8.60;;;4.13;;
83372;SDS011;73281;50.882;5.984;2024-01-06T10:56:22;9.48;;;4.20;;
83372;SDS011;73281;50.882;5.984;2024-01-06T10:58:50;9.55;;;4.18;;
83372;SDS011;73281;50.882;5.984;2024-01-06T11:01:21;9.73;;;3.72;;
83372;SDS011;73281;50.882;5.984;2024-01-06T11:03:47;7.38;;;3.25;;
83372;SDS011;73281;50.882;5.984;2024-01-06T11:06:14;7.47;;;3.70;;
83372;SDS011;73281;50.882;5.984;2024-01-06T11:11:52;7.13;;;3.20;;
83372;SDS011;73281;50.882;5.984;2024-01-06T11:14:23;7.22;;;3.35;;
83372;SDS011;73281;50.882;5.984;2024-01-06T11:16:49;6.55;;;3.13;;
83372;SDS011;73281;50.882;5.984;2024-01-06T11:22:18;7.32;;;3.30;;
83372;SDS011;73281;50.882;5.984;2024-01-06T11:24:47;7.72;;;3.13;;
83372;SDS011;73281;50.882;5.984;2024-01-06T11:27:22;7.13;;;3.30;;
83372;SDS011;73281;50.882;5.984;2024-01-06T11:29:53;6.05;;;2.80;;
83372;SDS011;73281;50.882;5.984;2024-01-06T11:32:32;7.23;;;3.20;;
83372;SDS011;73281;50.882;5.984;2024-01-06T11:35:04;8.13;;;3.42;;
83372;SDS011;73281;50.882;5.984;2024-01-06T11:37:37;7.13;;;3.05;;
83372;SDS011;73281;50.882;5.984;2024-01-06T11:42:56;8.07;;;3.33;;
83372;SDS011;73281;50.882;5.984;2024-01-06T11:45:30;6.33;;;2.47;;
83372;SDS011;73281;50.882;5.984;2024-01-06T11:47:58;5.63;;;2.85;;
83372;SDS011;73281;50.882;5.984;2024-01-06T11:50:25;7.05;;;3.20;;
83372;SDS011;73281;50.882;5.984;2024-01-06T11:52:52;6.38;;;3.00;;
83372;SDS011;73281;50.882;5.984;2024-01-06T11:55:18;8.90;;;2.85;;
83372;SDS011;73281;50.882;5.984;2024-01-06T11:57:44;6.77;;;3.03;;
83372;SDS011;73281;50.882;5.984;2024-01-06T12:00:10;6.80;;;3.25;;
83372;SDS011;73281;50.882;5.984;2024-01-06T12:02:36;5.95;;;2.78;;
83372;SDS011;73281;50.882;5.984;2024-01-06T12:05:02;6.53;;;2.97;;
83372;SDS011;73281;50.882;5.984;2024-01-06T12:07:28;6.13;;;2.80;;
83372;SDS011;73281;50.882;5.984;2024-01-06T12:10:02;6.97;;;3.00;;
83372;SDS011;73281;50.882;5.984;2024-01-06T12:12:29;6.72;;;2.90;;
83372;SDS011;73281;50.882;5.984;2024-01-06T12:14:54;7.30;;;3.00;;
83372;SDS011;73281;50.882;5.984;2024-01-06T12:17:20;6.80;;;2.87;;
83372;SDS011;73281;50.882;5.984;2024-01-06T12:19:46;8.10;;;3.40;;
83372;SDS011;73281;50.882;5.984;2024-01-06T12:22:12;6.17;;;3.20;;
83372;SDS011;73281;50.882;5.984;2024-01-06T12:24:39;6.15;;;2.88;;
83372;SDS011;73281;50.882;5.984;2024-01-06T12:27:06;6.37;;;2.40;;
83372;SDS011;73281;50.882;5.984;2024-01-06T12:29:37;6.20;;;2.67;;
83372;SDS011;73281;50.882;5.984;2024-01-06T12:32:05;5.80;;;2.80;;
83372;SDS011;73281;50.882;5.984;2024-01-06T12:34:34;6.22;;;3.15;;
83372;SDS011;73281;50.882;5.984;2024-01-06T12:37:04;7.65;;;2.63;;
83372;SDS011;73281;50.882;5.984;2024-01-06T12:39:30;6.60;;;2.27;;
83372;SDS011;73281;50.882;5.984;2024-01-06T12:41:57;5.93;;;2.33;;
83372;SDS011;73281;50.882;5.984;2024-01-06T12:44:24;5.25;;;2.42;;
83372;SDS011;73281;50.882;5.984;2024-01-06T12:46:50;5.33;;;2.50;;
83372;SDS011;73281;50.882;5.984;2024-01-06T12:49:15;5.77;;;2.67;;
83372;SDS011;73281;50.882;5.984;2024-01-06T12:51:41;6.07;;;2.55;;
83372;SDS011;73281;50.882;5.984;2024-01-06T12:54:06;6.10;;;3.00;;
83372;SDS011;73281;50.882;5.984;2024-01-06T12:56:31;6.60;;;3.03;;
83372;SDS011;73281;50.882;5.984;2024-01-06T12:58:57;6.87;;;2.73;;
83372;SDS011;73281;50.882;5.984;2024-01-06T13:01:22;5.65;;;2.90;;
83372;SDS011;73281;50.882;5.984;2024-01-06T13:03:48;6.30;;;2.60;;
83372;SDS011;73281;50.882;5.984;2024-01-06T13:06:13;5.80;;;2.87;;
83372;SDS011;73281;50.882;5.984;2024-01-06T13:08:40;5.82;;;2.55;;
83372;SDS011;73281;50.882;5.984;2024-01-06T13:11:07;6.43;;;2.45;;
